sensor_id;sensor_type;location;lat;lon;timestamp;pressure;altitude;pressure_sealevel;temperature;humidity
79372;BME280;68914;51.262;6.802;2023-07-13T00:00:42;101193.34;;;20.49;nan
79372;BME280;68914;51.262;6.802;2023-07-13T00:01:43;101194.59;;;20.42;nan
79372;BME280;68914;51.262;6.802;2023-07-13T00:02:44;101198.34;;;20.41;nan
79372;BME280;68914;51.262;6.802;2023-07-13T00:03:45;101190.84;;;20.43;nan
79372;BME280;68914;51.262;6.802;2023-07-13T00:04:46;101200.97;;;20.35;nan
79372;BME280;68914;51.262;6.802;2023-07-13T00:05:46;101188.25;;;20.21;nan
79372;BME280;68914;51.262;6.802;2023-07-13T00:06:48;101194.78;;;20.35;nan
79372;BME280;68914;51.262;6.802;2023-07-13T00:07:51;101197.03;;;20.43;nan
79372;BME280;68914;51.262;6.802;2023-07-13T00:08:52;101197.03;;;20.43;nan
79372;BME280;68914;51.262;6.802;2023-07-13T00:09:53;101193.41;;;20.27;nan
79372;BME280;68914;51.262;6.802;2023-07-13T00:10:54;101191.16;;;20.19;nan
79372;BME280;68914;51.262;6.802;2023-07-13T00:11:56;101198.53;;;20.34;nan
79372;BME280;68914;51.262;6.802;2023-07-13T00:12:57;101199.56;;;20.28;nan
79372;BME280;68914;51.262;6.802;2023-07-13T00:14:26;101200.72;;;20.37;nan
79372;BME280;68914;51.262;6.802;2023-07-13T00:15:27;101197.47;;;20.35;nan
79372;BME280;68914;51.262;6.802;2023-07-13T00:16:30;101193.94;;;20.29;nan
79372;BME280;68914;51.262;6.802;2023-07-13T00:17:31;101200.56;;;20.22;nan
79372;BME280;68914;51.262;6.802;2023-07-13T00:18:31;101199.59;;;20.33;nan
79372;BME280;68914;51.262;6.802;2023-07-13T00:19:32;101198.69;;;20.22;nan
79372;BME280;68914;51.262;6.802;2023-07-13T00:20:32;101198.06;;;20.15;nan
79372;BME280;68914;51.262;6.802;2023-07-13T00:21:33;101197.66;;;20.01;nan
79372;BME280;68914;51.262;6.802;2023-07-13T00:22:34;101203.34;;;20.05;nan
79372;BME280;68914;51.262;6.802;2023-07-13T00:23:36;101197.94;;;20.00;nan
79372;BME280;68914;51.262;6.802;2023-07-13T00:24:37;101197.34;;;20.20;nan
79372;BME280;68914;51.262;6.802;2023-07-13T00:25:42;101183.88;;;20.14;nan
79372;BME280;68914;51.262;6.802;2023-07-13T00:26:42;101189.84;;;20.22;nan
79372;BME280;68914;51.262;6.802;2023-07-13T00:27:47;101188.53;;;19.97;nan
79372;BME280;68914;51.262;6.802;2023-07-13T00:28:49;101193.97;;;20.07;nan
79372;BME280;68914;51.262;6.802;2023-07-13T00:31:32;101195.31;;;19.83;nan
79372;BME280;68914;51.262;6.802;2023-07-13T00:32:33;101195.78;;;20.02;nan
79372;BME280;68914;51.262;6.802;2023-07-13T00:33:33;101200.19;;;20.13;nan
79372;BME280;68914;51.262;6.802;2023-07-13T00:34:34;101203.69;;;20.13;nan
79372;BME280;68914;51.262;6.802;2023-07-13T00:35:35;101198.81;;;20.10;nan
79372;BME280;68914;51.262;6.802;2023-07-13T00:36:35;101203.16;;;19.89;nan
79372;BME280;68914;51.262;6.802;2023-07-13T00:37:36;101198.88;;;19.88;nan
79372;BME280;68914;51.262;6.802;2023-07-13T00:38:49;101198.34;;;19.92;nan
79372;BME280;68914;51.262;6.802;2023-07-13T00:39:49;101200.34;;;20.01;nan
79372;BME280;68914;51.262;6.802;2023-07-13T00:40:50;101195.38;;;19.88;nan
79372;BME280;68914;51.262;6.802;2023-07-13T00:41:51;101201.34;;;19.95;nan
79372;BME280;68914;51.262;6.802;2023-07-13T00:42:53;101195.88;;;19.85;nan
79372;BME280;68914;51.262;6.802;2023-07-13T00:43:53;101192.53;;;19.73;nan
79372;BME280;68914;51.262;6.802;2023-07-13T00:46:26;101200.75;;;19.88;nan
79372;BME280;68914;51.262;6.802;2023-07-13T00:47:26;101200.78;;;19.93;nan
79372;BME280;68914;51.262;6.802;2023-07-13T00:48:32;101200.78;;;19.93;nan
79372;BME280;68914;51.262;6.802;2023-07-13T00:49:35;101200.44;;;19.84;nan
79372;BME280;68914;51.262;6.802;2023-07-13T00:50:37;101201.97;;;19.80;nan
79372;BME280;68914;51.262;6.802;2023-07-13T00:52:44;101206.25;;;19.81;nan
79372;BME280;68914;51.262;6.802;2023-07-13T00:53:45;101197.06;;;19.55;nan
79372;BME280;68914;51.262;6.802;2023-07-13T00:54:46;101200.31;;;19.57;nan
79372;BME280;68914;51.262;6.802;2023-07-13T00:55:49;101204.41;;;19.82;nan
79372;BME280;68914;51.262;6.802;2023-07-13T00:56:52;101203.22;;;19.73;nan
79372;BME280;68914;51.262;6.802;2023-07-13T00:57:54;101196.22;;;19.72;nan
79372;BME280;68914;51.262;6.802;2023-07-13T00:58:56;101206.94;;;19.72;nan
79372;BME280;68914;51.262;6.802;2023-07-13T00:59:59;101200.03;;;19.76;nan
79372;BME280;68914;51.262;6.802;2023-07-13T01:01:09;101203.72;;;19.70;nan
79372;BME280;68914;51.262;6.802;2023-07-13T01:02:10;101200.56;;;19.73;nan
79372;BME280;68914;51.262;6.802;2023-07-13T01:03:11;101198.41;;;19.75;nan
79372;BME280;68914;51.262;6.802;2023-07-13T01:04:13;101189.31;;;19.54;nan
79372;BME280;68914;51.262;6.802;2023-07-13T01:05:17;101197.25;;;19.65;nan
79372;BME280;68914;51.262;6.802;2023-07-13T01:06:18;101194.81;;;19.64;nan
79372;BME280;68914;51.262;6.802;2023-07-13T01:07:19;101197.81;;;19.51;nan
79372;BME280;68914;51.262;6.802;2023-07-13T01:08:21;101193.56;;;19.72;nan
79372;BME280;68914;51.262;6.802;2023-07-13T01:09:22;101200.28;;;19.74;nan
79372;BME280;68914;51.262;6.802;2023-07-13T01:10:24;101198.72;;;19.56;nan
79372;BME280;68914;51.262;6.802;2023-07-13T01:11:26;101201.94;;;19.58;nan
79372;BME280;68914;51.262;6.802;2023-07-13T01:12:27;101202.69;;;19.54;nan
79372;BME280;68914;51.262;6.802;2023-07-13T01:13:28;101199.06;;;19.43;nan
79372;BME280;68914;51.262;6.802;2023-07-13T01:14:28;101203.97;;;19.51;nan
79372;BME280;68914;51.262;6.802;2023-07-13T01:15:45;101199.53;;;19.40;nan
79372;BME280;68914;51.262;6.802;2023-07-13T01:16:47;101196.84;;;19.40;nan
79372;BME280;68914;51.262;6.802;2023-07-13T01:17:48;101198.38;;;19.70;nan
79372;BME280;68914;51.262;6.802;2023-07-13T01:18:49;101196.97;;;19.67;nan
79372;BME280;68914;51.262;6.802;2023-07-13T01:19:50;101191.41;;;19.52;nan
79372;BME280;68914;51.262;6.802;2023-07-13T01:21:58;101192.25;;;19.52;nan
79372;BME280;68914;51.262;6.802;2023-07-13T01:22:58;101197.50;;;19.64;nan
79372;BME280;68914;51.262;6.802;2023-07-13T01:24:06;101193.38;;;19.56;nan
79372;BME280;68914;51.262;6.802;2023-07-13T01:25:07;101193.59;;;19.55;nan
79372;BME280;68914;51.262;6.802;2023-07-13T01:26:08;101196.31;;;19.38;nan
79372;BME280;68914;51.262;6.802;2023-07-13T01:27:13;101196.25;;;19.33;nan
79372;BME280;68914;51.262;6.802;2023-07-13T01:28:14;101197.72;;;19.24;nan
79372;BME280;68914;51.262;6.802;2023-07-13T01:29:17;101197.81;;;19.29;nan
79372;BME280;68914;51.262;6.802;2023-07-13T01:30:18;101197.16;;;19.22;nan
79372;BME280;68914;51.262;6.802;2023-07-13T01:31:19;101189.31;;;19.15;nan
79372;BME280;68914;51.262;6.802;2023-07-13T01:32:22;101197.09;;;19.16;nan
79372;BME280;68914;51.262;6.802;2023-07-13T01:33:25;101195.44;;;19.32;nan
79372;BME280;68914;51.262;6.802;2023-07-13T01:34:26;101199.06;;;19.43;nan
79372;BME280;68914;51.262;6.802;2023-07-13T01:35:27;101192.34;;;19.40;nan
79372;BME280;68914;51.262;6.802;2023-07-13T01:36:28;101201.09;;;19.36;nan
79372;BME280;68914;51.262;6.802;2023-07-13T01:37:28;101194.38;;;19.33;nan
79372;BME280;68914;51.262;6.802;2023-07-13T01:38:34;101192.25;;;19.35;nan
79372;BME280;68914;51.262;6.802;2023-07-13T01:39:35;101196.03;;;19.17;nan
79372;BME280;68914;51.262;6.802;2023-07-13T01:40:37;101196.78;;;19.13;nan
79372;BME280;68914;51.262;6.802;2023-07-13T01:41:38;101195.94;;;19.29;nan
79372;BME280;68914;51.262;6.802;2023-07-13T01:42:39;101194.66;;;19.15;nan
79372;BME280;68914;51.262;6.802;2023-07-13T01:43:40;101196.34;;;19.21;nan
79372;BME280;68914;51.262;6.802;2023-07-13T01:44:41;101197.91;;;19.00;nan
79372;BME280;68914;51.262;6.802;2023-07-13T01:45:42;101196.84;;;19.01;nan
79372;BME280;68914;51.262;6.802;2023-07-13T01:46:44;101203.09;;;19.07;nan
79372;BME280;68914;51.262;6.802;2023-07-13T01:47:45;101194.91;;;19.13;nan
79372;BME280;68914;51.262;6.802;2023-07-13T01:48:47;101199.34;;;19.08;nan
79372;BME280;68914;51.262;6.802;2023-07-13T01:49:50;101201.31;;;19.12;nan
79372;BME280;68914;51.262;6.802;2023-07-13T01:50:52;101207.22;;;19.14;nan
79372;BME280;68914;51.262;6.802;2023-07-13T01:51:52;101203.22;;;19.00;nan
79372;BME280;68914;51.262;6.802;2023-07-13T01:52:53;101203.41;;;19.10;nan
79372;BME280;68914;51.262;6.802;2023-07-13T01:53:54;101200.25;;;19.13;nan
79372;BME280;68914;51.262;6.802;2023-07-13T01:54:55;101203.97;;;18.96;nan
79372;BME280;68914;51.262;6.802;2023-07-13T01:55:56;101209.00;;;18.92;nan
79372;BME280;68914;51.262;6.802;2023-07-13T01:56:56;101200.50;;;18.95;nan
79372;BME280;68914;51.262;6.802;2023-07-13T01:57:58;101196.06;;;19.01;nan
79372;BME280;68914;51.262;6.802;2023-07-13T01:58:59;101198.81;;;18.89;nan
79372;BME280;68914;51.262;6.802;2023-07-13T02:00:03;101199.69;;;18.95;nan
79372;BME280;68914;51.262;6.802;2023-07-13T02:01:16;101199.03;;;19.04;nan
79372;BME280;68914;51.262;6.802;2023-07-13T02:02:16;101195.16;;;18.95;nan
79372;BME280;68914;51.262;6.802;2023-07-13T02:03:17;101190.53;;;18.90;nan
79372;BME280;68914;51.262;6.802;2023-07-13T02:04:18;101205.84;;;18.95;nan
79372;BME280;68914;51.262;6.802;2023-07-13T02:05:19;101199.22;;;18.81;nan
79372;BME280;68914;51.262;6.802;2023-07-13T02:06:20;101199.19;;;19.14;nan
79372;BME280;68914;51.262;6.802;2023-07-13T02:07:22;101198.72;;;18.84;nan
79372;BME280;68914;51.262;6.802;2023-07-13T02:08:22;101202.84;;;18.91;nan
79372;BME280;68914;51.262;6.802;2023-07-13T02:09:23;101199.84;;;18.88;nan
79372;BME280;68914;51.262;6.802;2023-07-13T02:10:24;101199.63;;;18.89;nan
79372;BME280;68914;51.262;6.802;2023-07-13T02:11:25;101197.19;;;19.05;nan
79372;BME280;68914;51.262;6.802;2023-07-13T02:12:25;101200.50;;;18.95;nan
79372;BME280;68914;51.262;6.802;2023-07-13T02:13:26;101197.25;;;18.76;nan
79372;BME280;68914;51.262;6.802;2023-07-13T02:14:27;101199.09;;;18.92;nan
79372;BME280;68914;51.262;6.802;2023-07-13T02:15:28;101201.63;;;18.82;nan
79372;BME280;68914;51.262;6.802;2023-07-13T02:16:30;101196.84;;;18.84;nan
79372;BME280;68914;51.262;6.802;2023-07-13T02:17:31;101203.50;;;18.82;nan
79372;BME280;68914;51.262;6.802;2023-07-13T02:18:32;101197.97;;;18.88;nan
79372;BME280;68914;51.262;6.802;2023-07-13T02:19:33;101205.19;;;18.88;nan
79372;BME280;68914;51.262;6.802;2023-07-13T02:20:34;101205.50;;;18.91;nan
79372;BME280;68914;51.262;6.802;2023-07-13T02:21:35;101206.50;;;18.85;nan
79372;BME280;68914;51.262;6.802;2023-07-13T02:22:35;101207.75;;;18.66;nan
79372;BME280;68914;51.262;6.802;2023-07-13T02:23:36;101211.91;;;18.90;nan
79372;BME280;68914;51.262;6.802;2023-07-13T02:24:36;101207.94;;;18.76;nan
79372;BME280;68914;51.262;6.802;2023-07-13T02:25:39;101208.25;;;18.80;nan
79372;BME280;68914;51.262;6.802;2023-07-13T02:26:39;101205.69;;;18.85;nan
79372;BME280;68914;51.262;6.802;2023-07-13T02:27:40;101217.00;;;18.92;nan
79372;BME280;68914;51.262;6.802;2023-07-13T02:28:41;101219.13;;;18.90;nan
79372;BME280;68914;51.262;6.802;2023-07-13T02:29:41;101207.38;;;18.74;nan
79372;BME280;68914;51.262;6.802;2023-07-13T02:30:42;101215.72;;;18.78;nan
79372;BME280;68914;51.262;6.802;2023-07-13T02:31:43;101221.00;;;18.89;nan
79372;BME280;68914;51.262;6.802;2023-07-13T02:32:43;101214.00;;;18.88;nan
79372;BME280;68914;51.262;6.802;2023-07-13T02:33:45;101215.41;;;18.91;nan
79372;BME280;68914;51.262;6.802;2023-07-13T02:34:45;101215.72;;;18.78;nan
79372;BME280;68914;51.262;6.802;2023-07-13T02:35:46;101217.66;;;18.82;nan
79372;BME280;68914;51.262;6.802;2023-07-13T02:36:47;101210.28;;;18.73;nan
79372;BME280;68914;51.262;6.802;2023-07-13T02:37:48;101213.66;;;18.68;nan
79372;BME280;68914;51.262;6.802;2023-07-13T02:38:49;101209.50;;;18.60;nan
79372;BME280;68914;51.262;6.802;2023-07-13T02:39:50;101211.91;;;18.74;nan
79372;BME280;68914;51.262;6.802;2023-07-13T02:40:51;101208.22;;;18.63;nan
79372;BME280;68914;51.262;6.802;2023-07-13T02:41:54;101213.53;;;18.75;nan
79372;BME280;68914;51.262;6.802;2023-07-13T02:42:54;101205.63;;;18.51;nan
79372;BME280;68914;51.262;6.802;2023-07-13T02:43:55;101210.97;;;18.68;nan
79372;BME280;68914;51.262;6.802;2023-07-13T02:45:03;101211.13;;;18.73;nan
79372;BME280;68914;51.262;6.802;2023-07-13T02:46:04;101210.41;;;18.66;nan
79372;BME280;68914;51.262;6.802;2023-07-13T02:47:09;101209.47;;;18.72;nan
79372;BME280;68914;51.262;6.802;2023-07-13T02:48:09;101214.25;;;18.70;nan
79372;BME280;68914;51.262;6.802;2023-07-13T02:49:13;101210.09;;;18.62;nan
79372;BME280;68914;51.262;6.802;2023-07-13T02:50:13;101221.16;;;18.54;nan
79372;BME280;68914;51.262;6.802;2023-07-13T02:51:14;101211.69;;;18.63;nan
79372;BME280;68914;51.262;6.802;2023-07-13T02:52:15;101210.16;;;18.67;nan
79372;BME280;68914;51.262;6.802;2023-07-13T02:53:16;101215.44;;;18.62;nan
79372;BME280;68914;51.262;6.802;2023-07-13T02:54:16;101217.63;;;18.65;nan
79372;BME280;68914;51.262;6.802;2023-07-13T02:55:17;101216.94;;;18.70;nan
79372;BME280;68914;51.262;6.802;2023-07-13T02:56:22;101222.06;;;18.60;nan
79372;BME280;68914;51.262;6.802;2023-07-13T02:57:23;101225.38;;;18.67;nan
79372;BME280;68914;51.262;6.802;2023-07-13T02:58:24;101221.31;;;18.64;nan
79372;BME280;68914;51.262;6.802;2023-07-13T02:59:25;101226.31;;;18.44;nan
79372;BME280;68914;51.262;6.802;2023-07-13T03:00:26;101227.25;;;18.66;nan
79372;BME280;68914;51.262;6.802;2023-07-13T03:01:28;101221.31;;;18.64;nan
79372;BME280;68914;51.262;6.802;2023-07-13T03:02:28;101223.50;;;18.51;nan
79372;BME280;68914;51.262;6.802;2023-07-13T03:03:29;101227.47;;;18.48;nan
79372;BME280;68914;51.262;6.802;2023-07-13T03:04:30;101223.13;;;18.59;nan
79372;BME280;68914;51.262;6.802;2023-07-13T03:05:30;101218.53;;;18.71;nan
79372;BME280;68914;51.262;6.802;2023-07-13T03:06:32;101221.31;;;18.64;nan
79372;BME280;68914;51.262;6.802;2023-07-13T03:07:34;101224.84;;;18.65;nan
79372;BME280;68914;51.262;6.802;2023-07-13T03:08:34;101220.59;;;18.81;nan
79372;BME280;68914;51.262;6.802;2023-07-13T03:09:35;101215.44;;;18.62;nan
79372;BME280;68914;51.262;6.802;2023-07-13T03:10:38;101214.16;;;18.65;nan
79372;BME280;68914;51.262;6.802;2023-07-13T03:11:42;101217.41;;;18.84;nan
79372;BME280;68914;51.262;6.802;2023-07-13T03:12:53;101221.47;;;18.86;nan
79372;BME280;68914;51.262;6.802;2023-07-13T03:13:58;101218.88;;;18.75;nan
79372;BME280;68914;51.262;6.802;2023-07-13T03:14:59;101217.69;;;18.54;nan
79372;BME280;68914;51.262;6.802;2023-07-13T03:16:01;101224.31;;;18.51;nan
79372;BME280;68914;51.262;6.802;2023-07-13T03:17:01;101230.44;;;18.80;nan
79372;BME280;68914;51.262;6.802;2023-07-13T03:18:05;101223.16;;;18.76;nan
79372;BME280;68914;51.262;6.802;2023-07-13T03:19:06;101228.78;;;18.62;nan
79372;BME280;68914;51.262;6.802;2023-07-13T03:20:08;101230.97;;;18.65;nan
79372;BME280;68914;51.262;6.802;2023-07-13T03:21:09;101224.38;;;18.56;nan
79372;BME280;68914;51.262;6.802;2023-07-13T03:22:10;101223.84;;;18.54;nan
79372;BME280;68914;51.262;6.802;2023-07-13T03:23:12;101237.91;;;18.50;nan
79372;BME280;68914;51.262;6.802;2023-07-13T03:24:13;101230.53;;;18.57;nan
79372;BME280;68914;51.262;6.802;2023-07-13T03:25:14;101228.38;;;18.54;nan
79372;BME280;68914;51.262;6.802;2023-07-13T03:26:16;101224.06;;;18.53;nan
79372;BME280;68914;51.262;6.802;2023-07-13T03:27:18;101224.78;;;18.48;nan
79372;BME280;68914;51.262;6.802;2023-07-13T03:28:20;101229.31;;;18.48;nan
79372;BME280;68914;51.262;6.802;2023-07-13T03:29:20;101221.72;;;18.56;nan
79372;BME280;68914;51.262;6.802;2023-07-13T03:30:21;101226.38;;;18.32;nan
79372;BME280;68914;51.262;6.802;2023-07-13T03:31:26;101230.59;;;18.45;nan
79372;BME280;68914;51.262;6.802;2023-07-13T03:32:28;101229.16;;;18.37;nan
79372;BME280;68914;51.262;6.802;2023-07-13T03:33:30;101237.56;;;18.46;nan
79372;BME280;68914;51.262;6.802;2023-07-13T03:34:31;101228.50;;;18.47;nan
79372;BME280;68914;51.262;6.802;2023-07-13T03:35:33;101241.41;;;18.50;nan
79372;BME280;68914;51.262;6.802;2023-07-13T03:36:34;101231.09;;;18.71;nan
79372;BME280;68914;51.262;6.802;2023-07-13T03:37:39;101231.91;;;18.88;nan
79372;BME280;68914;51.262;6.802;2023-07-13T03:38:49;101230.19;;;18.65;nan
79372;BME280;68914;51.262;6.802;2023-07-13T03:39:55;101235.38;;;18.72;nan
79372;BME280;68914;51.262;6.802;2023-07-13T03:40:55;101236.88;;;18.67;nan
79372;BME280;68914;51.262;6.802;2023-07-13T03:41:57;101236.13;;;18.84;nan
79372;BME280;68914;51.262;6.802;2023-07-13T03:43:00;101228.28;;;18.77;nan
79372;BME280;68914;51.262;6.802;2023-07-13T03:44:03;101244.56;;;18.64;nan
79372;BME280;68914;51.262;6.802;2023-07-13T03:45:04;101237.97;;;18.38;nan
79372;BME280;68914;51.262;6.802;2023-07-13T03:46:07;101237.00;;;18.44;nan
79372;BME280;68914;51.262;6.802;2023-07-13T03:47:07;101242.63;;;18.59;nan
79372;BME280;68914;51.262;6.802;2023-07-13T03:48:09;101238.50;;;18.68;nan
79372;BME280;68914;51.262;6.802;2023-07-13T03:49:10;101244.47;;;18.87;nan
79372;BME280;68914;51.262;6.802;2023-07-13T03:50:12;101237.34;;;18.93;nan
79372;BME280;68914;51.262;6.802;2023-07-13T03:51:14;101247.59;;;18.84;nan
79372;BME280;68914;51.262;6.802;2023-07-13T03:52:15;101248.75;;;18.88;nan
79372;BME280;68914;51.262;6.802;2023-07-13T03:53:16;101252.34;;;18.65;nan
79372;BME280;68914;51.262;6.802;2023-07-13T03:54:17;101256.63;;;18.66;nan
79372;BME280;68914;51.262;6.802;2023-07-13T03:55:18;101255.56;;;18.67;nan
79372;BME280;68914;51.262;6.802;2023-07-13T03:56:20;101252.53;;;18.92;nan
79372;BME280;68914;51.262;6.802;2023-07-13T03:57:24;101260.66;;;18.98;nan
79372;BME280;68914;51.262;6.802;2023-07-13T03:58:38;101256.28;;;18.75;nan
79372;BME280;68914;51.262;6.802;2023-07-13T03:59:45;101256.94;;;18.82;nan
79372;BME280;68914;51.262;6.802;2023-07-13T04:00:46;101255.94;;;18.88;nan
79372;BME280;68914;51.262;6.802;2023-07-13T04:01:46;101264.78;;;18.88;nan
79372;BME280;68914;51.262;6.802;2023-07-13T04:02:47;101263.56;;;18.96;nan
79372;BME280;68914;51.262;6.802;2023-07-13T04:03:50;101266.16;;;18.74;nan
79372;BME280;68914;51.262;6.802;2023-07-13T04:04:51;101268.50;;;18.71;nan
79372;BME280;68914;51.262;6.802;2023-07-13T04:05:54;101270.69;;;18.74;nan
79372;BME280;68914;51.262;6.802;2023-07-13T04:06:55;101275.84;;;18.80;nan
79372;BME280;68914;51.262;6.802;2023-07-13T04:07:55;101266.91;;;18.86;nan
79372;BME280;68914;51.262;6.802;2023-07-13T04:08:59;101278.06;;;18.83;nan
79372;BME280;68914;51.262;6.802;2023-07-13T04:10:00;101278.66;;;19.02;nan
79372;BME280;68914;51.262;6.802;2023-07-13T04:11:01;101277.50;;;18.81;nan
79372;BME280;68914;51.262;6.802;2023-07-13T04:12:02;101279.59;;;18.96;nan
79372;BME280;68914;51.262;6.802;2023-07-13T04:13:03;101280.16;;;18.81;nan
79372;BME280;68914;51.262;6.802;2023-07-13T04:14:04;101279.38;;;18.98;nan
79372;BME280;68914;51.262;6.802;2023-07-13T04:15:05;101276.69;;;18.81;nan
79372;BME280;68914;51.262;6.802;2023-07-13T04:16:06;101274.09;;;19.20;nan
79372;BME280;68914;51.262;6.802;2023-07-13T04:17:07;101281.56;;;19.34;nan
79372;BME280;68914;51.262;6.802;2023-07-13T04:18:07;101284.50;;;19.33;nan
79372;BME280;68914;51.262;6.802;2023-07-13T04:19:09;101282.94;;;19.03;nan
79372;BME280;68914;51.262;6.802;2023-07-13T04:20:10;101282.75;;;19.44;nan
79372;BME280;68914;51.262;6.802;2023-07-13T04:21:11;101283.75;;;19.37;nan
79372;BME280;68914;51.262;6.802;2023-07-13T04:22:12;101279.69;;;19.35;nan
79372;BME280;68914;51.262;6.802;2023-07-13T04:23:13;101287.06;;;19.28;nan
79372;BME280;68914;51.262;6.802;2023-07-13T04:24:14;101285.06;;;19.18;nan
79372;BME280;68914;51.262;6.802;2023-07-13T04:25:14;101286.06;;;19.51;nan
79372;BME280;68914;51.262;6.802;2023-07-13T04:26:15;101284.47;;;19.67;nan
79372;BME280;68914;51.262;6.802;2023-07-13T04:27:16;101285.84;;;19.69;nan
79372;BME280;68914;51.262;6.802;2023-07-13T04:28:16;101286.72;;;19.75;nan
79372;BME280;68914;51.262;6.802;2023-07-13T04:29:18;101282.94;;;19.03;nan
79372;BME280;68914;51.262;6.802;2023-07-13T04:30:19;101285.31;;;19.16;nan
79372;BME280;68914;51.262;6.802;2023-07-13T04:31:20;101290.56;;;19.45;nan
79372;BME280;68914;51.262;6.802;2023-07-13T04:32:21;101282.28;;;19.47;nan
79372;BME280;68914;51.262;6.802;2023-07-13T04:33:22;101286.13;;;19.17;nan
79372;BME280;68914;51.262;6.802;2023-07-13T04:34:22;101277.22;;;19.28;nan
79372;BME280;68914;51.262;6.802;2023-07-13T04:35:24;101281.66;;;19.23;nan
79372;BME280;68914;51.262;6.802;2023-07-13T04:36:25;101285.53;;;19.32;nan
79372;BME280;68914;51.262;6.802;2023-07-13T04:37:28;101286.91;;;19.01;nan
79372;BME280;68914;51.262;6.802;2023-07-13T04:38:30;101288.34;;;18.91;nan
79372;BME280;68914;51.262;6.802;2023-07-13T04:39:32;101277.44;;;18.93;nan
79372;BME280;68914;51.262;6.802;2023-07-13T04:40:33;101287.31;;;19.09;nan
79372;BME280;68914;51.262;6.802;2023-07-13T04:41:33;101285.78;;;18.97;nan
79372;BME280;68914;51.262;6.802;2023-07-13T04:42:34;101296.09;;;18.76;nan
79372;BME280;68914;51.262;6.802;2023-07-13T04:43:35;101294.22;;;19.05;nan
79372;BME280;68914;51.262;6.802;2023-07-13T04:44:36;101287.22;;;18.87;nan
79372;BME280;68914;51.262;6.802;2023-07-13T04:45:36;101287.47;;;18.57;nan
79372;BME280;68914;51.262;6.802;2023-07-13T04:46:37;101282.53;;;19.11;nan
79372;BME280;68914;51.262;6.802;2023-07-13T04:47:38;101289.81;;;19.16;nan
79372;BME280;68914;51.262;6.802;2023-07-13T04:48:38;101286.91;;;19.01;nan
79372;BME280;68914;51.262;6.802;2023-07-13T04:49:42;101292.41;;;19.11;nan
79372;BME280;68914;51.262;6.802;2023-07-13T04:50:44;101284.13;;;18.96;nan
79372;BME280;68914;51.262;6.802;2023-07-13T04:51:45;101291.13;;;19.30;nan
79372;BME280;68914;51.262;6.802;2023-07-13T04:52:46;101296.06;;;19.38;nan
79372;BME280;68914;51.262;6.802;2023-07-13T04:53:46;101285.84;;;19.19;nan
79372;BME280;68914;51.262;6.802;2023-07-13T04:54:47;101281.16;;;19.26;nan
79372;BME280;68914;51.262;6.802;2023-07-13T04:55:48;101289.00;;;19.15;nan
79372;BME280;68914;51.262;6.802;2023-07-13T04:56:48;101287.59;;;18.79;nan
79372;BME280;68914;51.262;6.802;2023-07-13T04:57:49;101291.16;;;18.56;nan
79372;BME280;68914;51.262;6.802;2023-07-13T04:58:52;101291.28;;;18.90;nan
79372;BME280;68914;51.262;6.802;2023-07-13T04:59:53;101293.53;;;19.32;nan
79372;BME280;68914;51.262;6.802;2023-07-13T05:01:02;101294.22;;;19.05;nan
79372;BME280;68914;51.262;6.802;2023-07-13T05:02:03;101299.00;;;18.75;nan
79372;BME280;68914;51.262;6.802;2023-07-13T05:03:03;101292.34;;;19.06;nan
79372;BME280;68914;51.262;6.802;2023-07-13T05:04:04;101292.06;;;18.90;nan
79372;BME280;68914;51.262;6.802;2023-07-13T05:05:06;101292.81;;;19.20;nan
79372;BME280;68914;51.262;6.802;2023-07-13T05:06:07;101297.13;;;19.21;nan
79372;BME280;68914;51.262;6.802;2023-07-13T05:07:10;101301.09;;;19.01;nan
79372;BME280;68914;51.262;6.802;2023-07-13T05:08:11;101302.16;;;19.34;nan
79372;BME280;68914;51.262;6.802;2023-07-13T05:09:11;101298.75;;;19.22;nan
79372;BME280;68914;51.262;6.802;2023-07-13T05:10:13;101299.56;;;19.05;nan
79372;BME280;68914;51.262;6.802;2023-07-13T05:11:13;101300.84;;;19.36;nan
79372;BME280;68914;51.262;6.802;2023-07-13T05:12:14;101303.03;;;19.06;nan
79372;BME280;68914;51.262;6.802;2023-07-13T05:13:15;101311.56;;;19.36;nan
79372;BME280;68914;51.262;6.802;2023-07-13T05:14:15;101302.53;;;19.42;nan
79372;BME280;68914;51.262;6.802;2023-07-13T05:15:17;101306.13;;;19.48;nan
79372;BME280;68914;51.262;6.802;2023-07-13T05:16:21;101304.16;;;19.44;nan
79372;BME280;68914;51.262;6.802;2023-07-13T05:17:21;101300.19;;;19.46;nan
79372;BME280;68914;51.262;6.802;2023-07-13T05:18:22;101310.44;;;18.87;nan
79372;BME280;68914;51.262;6.802;2023-07-13T05:19:23;101307.78;;;18.87;nan
79372;BME280;68914;51.262;6.802;2023-07-13T05:20:24;101307.25;;;19.52;nan
79372;BME280;68914;51.262;6.802;2023-07-13T05:21:27;101307.91;;;19.76;nan
79372;BME280;68914;51.262;6.802;2023-07-13T05:22:28;101307.34;;;19.40;nan
79372;BME280;68914;51.262;6.802;2023-07-13T05:23:29;101307.41;;;19.46;nan
79372;BME280;68914;51.262;6.802;2023-07-13T05:24:29;101312.50;;;19.47;nan
79372;BME280;68914;51.262;6.802;2023-07-13T05:25:30;101313.31;;;19.81;nan
79372;BME280;68914;51.262;6.802;2023-07-13T05:26:30;101310.16;;;19.84;nan
79372;BME280;68914;51.262;6.802;2023-07-13T05:27:31;101311.91;;;20.18;nan
79372;BME280;68914;51.262;6.802;2023-07-13T05:28:32;101306.69;;;20.28;nan
79372;BME280;68914;51.262;6.802;2023-07-13T05:29:33;101314.44;;;19.85;nan
79372;BME280;68914;51.262;6.802;2023-07-13T05:30:33;101316.47;;;19.78;nan
79372;BME280;68914;51.262;6.802;2023-07-13T05:31:34;101313.88;;;19.67;nan
79372;BME280;68914;51.262;6.802;2023-07-13T05:32:35;101320.03;;;19.84;nan
79372;BME280;68914;51.262;6.802;2023-07-13T05:33:35;101321.97;;;20.10;nan
79372;BME280;68914;51.262;6.802;2023-07-13T05:34:36;101321.84;;;19.61;nan
79372;BME280;68914;51.262;6.802;2023-07-13T05:35:36;101320.22;;;19.77;nan
79372;BME280;68914;51.262;6.802;2023-07-13T05:36:37;101325.88;;;19.47;nan